sensor_id;sensor_type;location;lat;lon;timestamp;pressure;altitude;pressure_sealevel;temperature;humidity
48718;BME280;34521;33.042;-96.586;2023-05-07T00:00:36;99209.71;;;23.30;33.62
48718;BME280;34521;33.042;-96.586;2023-05-07T00:03:02;99212.92;;;23.00;33.87
48718;BME280;34521;33.042;-96.586;2023-05-07T00:05:27;99210.35;;;23.58;33.84
48718;BME280;34521;33.042;-96.586;2023-05-07T00:07:52;99208.74;;;23.19;34.27
48718;BME280;34521;33.042;-96.586;2023-05-07T00:10:16;99205.20;;;22.72;34.78
48718;BME280;34521;33.042;-96.586;2023-05-07T00:12:41;99201.95;;;23.71;33.13
48718;BME280;34521;33.042;-96.586;2023-05-07T00:15:08;99231.21;;;23.25;33.37
48718;BME280;34521;33.042;-96.586;2023-05-07T00:17:34;99239.22;;;23.03;33.66
48718;BME280;34521;33.042;-96.586;2023-05-07T00:19:57;99240.43;;;23.08;33.65
48718;BME280;34521;33.042;-96.586;2023-05-07T00:22:22;99234.83;;;23.26;33.73
48718;BME280;34521;33.042;-96.586;2023-05-07T00:24:47;99232.87;;;23.26;34.03
48718;BME280;34521;33.042;-96.586;2023-05-07T00:27:12;99226.92;;;22.94;34.69
48718;BME280;34521;33.042;-96.586;2023-05-07T00:29:37;99228.83;;;23.43;33.72
48718;BME280;34521;33.042;-96.586;2023-05-07T00:32:03;99246.95;;;23.59;33.00
48718;BME280;34521;33.042;-96.586;2023-05-07T00:34:28;99258.36;;;23.63;32.12
48718;BME280;34521;33.042;-96.586;2023-05-07T00:36:53;99262.21;;;23.43;32.94
48718;BME280;34521;33.042;-96.586;2023-05-07T00:39:18;99263.48;;;23.04;33.61
48718;BME280;34521;33.042;-96.586;2023-05-07T00:41:43;99252.69;;;22.78;34.03
48718;BME280;34521;33.042;-96.586;2023-05-07T00:44:08;99254.69;;;23.28;33.53
48718;BME280;34521;33.042;-96.586;2023-05-07T00:46:33;99251.26;;;22.89;34.50
48718;BME280;34521;33.042;-96.586;2023-05-07T00:48:59;99270.76;;;23.17;33.07
48718;BME280;34521;33.042;-96.586;2023-05-07T00:51:24;99268.35;;;23.20;32.48
48718;BME280;34521;33.042;-96.586;2023-05-07T00:53:49;99254.78;;;23.03;33.13
48718;BME280;34521;33.042;-96.586;2023-05-07T00:56:14;99244.26;;;22.86;33.22
48718;BME280;34521;33.042;-96.586;2023-05-07T00:58:39;99250.04;;;22.93;33.37
48718;BME280;34521;33.042;-96.586;2023-05-07T01:01:04;99259.65;;;23.31;33.03
48718;BME280;34521;33.042;-96.586;2023-05-07T01:03:29;99265.16;;;23.51;33.64
48718;BME280;34521;33.042;-96.586;2023-05-07T01:05:54;99281.38;;;23.05;33.98
48718;BME280;34521;33.042;-96.586;2023-05-07T01:08:19;99300.30;;;23.23;32.58
48718;BME280;34521;33.042;-96.586;2023-05-07T01:10:44;99320.14;;;23.25;32.27
48718;BME280;34521;33.042;-96.586;2023-05-07T01:13:14;99333.80;;;22.47;33.85
48718;BME280;34521;33.042;-96.586;2023-05-07T01:15:34;99374.48;;;22.60;33.40
48718;BME280;34521;33.042;-96.586;2023-05-07T01:17:59;99415.51;;;23.09;33.06
48718;BME280;34521;33.042;-96.586;2023-05-07T01:20:25;99433.59;;;23.48;32.70
48718;BME280;34521;33.042;-96.586;2023-05-07T01:22:50;99444.24;;;22.37;34.17
48718;BME280;34521;33.042;-96.586;2023-05-07T01:25:15;99447.00;;;22.73;33.63
48718;BME280;34521;33.042;-96.586;2023-05-07T01:27:39;99456.12;;;23.20;32.84
48718;BME280;34521;33.042;-96.586;2023-05-07T01:30:06;99470.71;;;22.64;33.62
48718;BME280;34521;33.042;-96.586;2023-05-07T01:32:35;99478.64;;;22.80;33.08
48718;BME280;34521;33.042;-96.586;2023-05-07T01:34:56;99477.81;;;22.71;33.31
48718;BME280;34521;33.042;-96.586;2023-05-07T01:37:21;99474.65;;;22.72;33.42
48718;BME280;34521;33.042;-96.586;2023-05-07T01:39:46;99464.42;;;24.81;31.67
48718;BME280;34521;33.042;-96.586;2023-05-07T01:42:11;99460.91;;;24.02;32.23
48718;BME280;34521;33.042;-96.586;2023-05-07T01:44:35;99460.42;;;24.03;31.89
48718;BME280;34521;33.042;-96.586;2023-05-07T01:47:02;99460.34;;;23.74;31.55
48718;BME280;34521;33.042;-96.586;2023-05-07T01:49:31;99452.30;;;24.10;32.48
48718;BME280;34521;33.042;-96.586;2023-05-07T01:51:51;99436.52;;;25.29;30.26
48718;BME280;34521;33.042;-96.586;2023-05-07T01:54:16;99422.49;;;25.93;30.08
48718;BME280;34521;33.042;-96.586;2023-05-07T01:56:41;99422.58;;;25.44;30.94
48718;BME280;34521;33.042;-96.586;2023-05-07T01:59:06;99429.82;;;25.13;31.16
48718;BME280;34521;33.042;-96.586;2023-05-07T02:01:31;99428.57;;;25.50;30.64
48718;BME280;34521;33.042;-96.586;2023-05-07T02:03:57;99447.86;;;23.63;32.56
48718;BME280;34521;33.042;-96.586;2023-05-07T02:06:22;99453.67;;;23.50;32.56
48718;BME280;34521;33.042;-96.586;2023-05-07T02:08:47;99467.09;;;23.60;33.72
48718;BME280;34521;33.042;-96.586;2023-05-07T02:11:11;99465.41;;;24.94;30.91
48718;BME280;34521;33.042;-96.586;2023-05-07T02:13:37;99458.71;;;25.36;30.93
48718;BME280;34521;33.042;-96.586;2023-05-07T02:16:03;99459.75;;;25.58;30.60
48718;BME280;34521;33.042;-96.586;2023-05-07T02:18:28;99463.06;;;25.44;31.01
48718;BME280;34521;33.042;-96.586;2023-05-07T02:20:53;99469.21;;;25.13;31.68
48718;BME280;34521;33.042;-96.586;2023-05-07T02:23:18;99481.63;;;24.37;32.52
48718;BME280;34521;33.042;-96.586;2023-05-07T02:25:43;99500.96;;;24.14;31.70
48718;BME280;34521;33.042;-96.586;2023-05-07T02:28:08;99509.86;;;24.19;31.26
48718;BME280;34521;33.042;-96.586;2023-05-07T02:30:33;99509.76;;;24.56;31.34
48718;BME280;34521;33.042;-96.586;2023-05-07T02:32:59;99515.29;;;25.87;29.78
48718;BME280;34521;33.042;-96.586;2023-05-07T02:35:25;99505.99;;;25.67;30.23
48718;BME280;34521;33.042;-96.586;2023-05-07T02:37:49;99507.62;;;25.70;30.14
48718;BME280;34521;33.042;-96.586;2023-05-07T02:40:14;99518.44;;;25.61;30.65
48718;BME280;34521;33.042;-96.586;2023-05-07T02:42:40;99536.72;;;26.05;30.26
48718;BME280;34521;33.042;-96.586;2023-05-07T02:45:05;99546.93;;;24.74;32.23
48718;BME280;34521;33.042;-96.586;2023-05-07T02:47:29;99553.80;;;24.15;32.26
48718;BME280;34521;33.042;-96.586;2023-05-07T02:49:55;99569.37;;;23.38;31.79
48718;BME280;34521;33.042;-96.586;2023-05-07T02:52:20;99581.22;;;24.87;31.35
48718;BME280;34521;33.042;-96.586;2023-05-07T02:54:45;99590.49;;;25.63;30.15
48718;BME280;34521;33.042;-96.586;2023-05-07T02:57:10;99602.22;;;25.95;29.79
48718;BME280;34521;33.042;-96.586;2023-05-07T02:59:36;99614.70;;;26.55;29.35
48718;BME280;34521;33.042;-96.586;2023-05-07T03:02:00;99631.94;;;26.27;29.79
48718;BME280;34521;33.042;-96.586;2023-05-07T03:04:25;99644.62;;;26.47;29.31
48718;BME280;34521;33.042;-96.586;2023-05-07T03:06:51;99649.70;;;26.01;30.07
48718;BME280;34521;33.042;-96.586;2023-05-07T03:09:16;99652.77;;;24.76;30.89
48718;BME280;34521;33.042;-96.586;2023-05-07T03:11:40;99659.12;;;24.32;30.82
48718;BME280;34521;33.042;-96.586;2023-05-07T03:14:06;99668.70;;;24.39;32.14
48718;BME280;34521;33.042;-96.586;2023-05-07T03:16:35;99657.16;;;25.49;29.76
48718;BME280;34521;33.042;-96.586;2023-05-07T03:18:56;99643.60;;;25.71;29.73
48718;BME280;34521;33.042;-96.586;2023-05-07T03:21:21;99641.93;;;25.36;30.21
48718;BME280;34521;33.042;-96.586;2023-05-07T03:23:46;99649.36;;;26.13;29.64
48718;BME280;34521;33.042;-96.586;2023-05-07T03:26:11;99662.80;;;26.62;29.47
48718;BME280;34521;33.042;-96.586;2023-05-07T03:28:36;99688.07;;;26.42;29.53
48718;BME280;34521;33.042;-96.586;2023-05-07T03:31:01;99702.57;;;23.57;32.36
48718;BME280;34521;33.042;-96.586;2023-05-07T03:33:26;99707.48;;;25.05;30.44
48718;BME280;34521;33.042;-96.586;2023-05-07T03:35:51;99710.66;;;25.02;29.48
48718;BME280;34521;33.042;-96.586;2023-05-07T03:38:16;99708.72;;;25.43;29.67
48718;BME280;34521;33.042;-96.586;2023-05-07T03:40:41;99700.89;;;26.83;28.21
48718;BME280;34521;33.042;-96.586;2023-05-07T03:43:07;99698.40;;;26.38;29.10
48718;BME280;34521;33.042;-96.586;2023-05-07T03:45:31;99690.71;;;26.52;28.74
48718;BME280;34521;33.042;-96.586;2023-05-07T03:47:56;99697.05;;;26.15;29.36
48718;BME280;34521;33.042;-96.586;2023-05-07T03:50:22;99712.87;;;26.68;29.01
48718;BME280;34521;33.042;-96.586;2023-05-07T03:52:47;99755.10;;;25.00;30.79
48718;BME280;34521;33.042;-96.586;2023-05-07T03:55:12;99794.78;;;24.81;30.84
48718;BME280;34521;33.042;-96.586;2023-05-07T03:57:37;99814.15;;;22.90;33.15
48718;BME280;34521;33.042;-96.586;2023-05-07T04:00:02;99838.41;;;23.19;32.35
48718;BME280;34521;33.042;-96.586;2023-05-07T04:02:27;99860.45;;;22.33;32.91
48718;BME280;34521;33.042;-96.586;2023-05-07T04:04:52;99901.27;;;23.31;31.81
48718;BME280;34521;33.042;-96.586;2023-05-07T04:07:17;99933.19;;;23.21;31.90
48718;BME280;34521;33.042;-96.586;2023-05-07T04:09:42;99995.21;;;23.48;31.71
48718;BME280;34521;33.042;-96.586;2023-05-07T04:12:08;100026.96;;;23.84;31.66
48718;BME280;34521;33.042;-96.586;2023-05-07T04:14:33;100038.32;;;23.80;31.58
48718;BME280;34521;33.042;-96.586;2023-05-07T04:16:58;100042.31;;;23.67;31.87
48718;BME280;34521;33.042;-96.586;2023-05-07T04:19:23;100070.06;;;23.25;32.60
48718;BME280;34521;33.042;-96.586;2023-05-07T04:21:48;100089.94;;;23.29;32.30
48718;BME280;34521;33.042;-96.586;2023-05-07T04:24:13;100055.83;;;23.08;31.83
48718;BME280;34521;33.042;-96.586;2023-05-07T04:26:38;100021.08;;;22.62;33.04
48718;BME280;34521;33.042;-96.586;2023-05-07T04:29:03;99962.46;;;22.99;32.03
48718;BME280;34521;33.042;-96.586;2023-05-07T04:31:28;99909.61;;;23.33;31.84
48718;BME280;34521;33.042;-96.586;2023-05-07T04:33:53;99912.56;;;23.26;32.10
48718;BME280;34521;33.042;-96.586;2023-05-07T04:36:18;99917.22;;;23.58;31.83
48718;BME280;34521;33.042;-96.586;2023-05-07T04:38:43;99927.32;;;23.20;32.13
48718;BME280;34521;33.042;-96.586;2023-05-07T04:41:09;99924.73;;;23.61;32.02
48718;BME280;34521;33.042;-96.586;2023-05-07T04:43:34;99924.04;;;23.83;31.94
48718;BME280;34521;33.042;-96.586;2023-05-07T04:45:58;99939.87;;;22.77;33.09
48718;BME280;34521;33.042;-96.586;2023-05-07T04:48:24;99956.23;;;22.10;33.22
48718;BME280;34521;33.042;-96.586;2023-05-07T04:50:49;99966.88;;;22.83;32.13
48718;BME280;34521;33.042;-96.586;2023-05-07T04:53:14;99980.60;;;23.18;32.09
48718;BME280;34521;33.042;-96.586;2023-05-07T04:55:39;99975.35;;;22.85;32.32
48718;BME280;34521;33.042;-96.586;2023-05-07T04:58:04;99947.72;;;22.86;32.48
48718;BME280;34521;33.042;-96.586;2023-05-07T05:00:29;99930.25;;;22.86;32.61
48718;BME280;34521;33.042;-96.586;2023-05-07T05:02:54;99929.44;;;23.32;32.44
48718;BME280;34521;33.042;-96.586;2023-05-07T05:05:19;99929.86;;;23.32;34.03
48718;BME280;34521;33.042;-96.586;2023-05-07T05:07:44;99938.50;;;22.99;33.97
48718;BME280;34521;33.042;-96.586;2023-05-07T05:10:09;99941.86;;;23.20;33.88
48718;BME280;34521;33.042;-96.586;2023-05-07T05:12:34;99948.43;;;23.13;33.97
48718;BME280;34521;33.042;-96.586;2023-05-07T05:14:59;99955.49;;;22.62;34.27
48718;BME280;34521;33.042;-96.586;2023-05-07T05:17:24;99967.05;;;23.05;33.47
48718;BME280;34521;33.042;-96.586;2023-05-07T05:19:49;99981.54;;;22.80;32.67
48718;BME280;34521;33.042;-96.586;2023-05-07T05:22:14;100009.54;;;22.25;33.60
48718;BME280;34521;33.042;-96.586;2023-05-07T05:24:39;100023.17;;;22.68;33.18
48718;BME280;34521;33.042;-96.586;2023-05-07T05:27:05;100025.20;;;22.91;33.07
48718;BME280;34521;33.042;-96.586;2023-05-07T05:29:29;100044.84;;;22.83;33.24
48718;BME280;34521;33.042;-96.586;2023-05-07T05:31:55;100055.29;;;22.77;33.14
48718;BME280;34521;33.042;-96.586;2023-05-07T05:34:20;100056.18;;;23.25;32.91
48718;BME280;34521;33.042;-96.586;2023-05-07T05:36:45;100069.46;;;22.86;33.21
48718;BME280;34521;33.042;-96.586;2023-05-07T05:39:10;100065.89;;;22.87;33.29
48718;BME280;34521;33.042;-96.586;2023-05-07T05:41:35;100064.79;;;22.88;33.38
48718;BME280;34521;33.042;-96.586;2023-05-07T05:44:00;100091.67;;;22.73;33.66
48718;BME280;34521;33.042;-96.586;2023-05-07T05:46:25;100098.95;;;22.41;33.61
48718;BME280;34521;33.042;-96.586;2023-05-07T05:48:50;100109.92;;;22.35;32.45
48718;BME280;34521;33.042;-96.586;2023-05-07T05:51:15;100115.32;;;22.14;33.21
48718;BME280;34521;33.042;-96.586;2023-05-07T05:53:41;100100.99;;;22.56;32.92
48718;BME280;34521;33.042;-96.586;2023-05-07T05:56:06;100084.67;;;22.46;33.21
48718;BME280;34521;33.042;-96.586;2023-05-07T05:58:31;100061.43;;;22.52;33.23
48718;BME280;34521;33.042;-96.586;2023-05-07T06:00:56;100037.79;;;22.80;32.97
48718;BME280;34521;33.042;-96.586;2023-05-07T06:03:21;100017.44;;;22.78;32.83
48718;BME280;34521;33.042;-96.586;2023-05-07T06:05:46;99984.05;;;22.65;33.05
48718;BME280;34521;33.042;-96.586;2023-05-07T06:08:11;99952.20;;;22.75;33.03
48718;BME280;34521;33.042;-96.586;2023-05-07T06:10:37;99901.88;;;22.97;33.13
48718;BME280;34521;33.042;-96.586;2023-05-07T06:13:01;99842.21;;;23.28;32.84
48718;BME280;34521;33.042;-96.586;2023-05-07T06:15:26;99793.29;;;22.97;32.99
48718;BME280;34521;33.042;-96.586;2023-05-07T06:17:51;99744.95;;;21.96;34.07
48718;BME280;34521;33.042;-96.586;2023-05-07T06:20:17;99701.18;;;22.15;33.86
48718;BME280;34521;33.042;-96.586;2023-05-07T06:22:41;99722.71;;;22.38;33.29
48718;BME280;34521;33.042;-96.586;2023-05-07T06:25:07;99728.69;;;22.77;33.07
48718;BME280;34521;33.042;-96.586;2023-05-07T06:27:32;99720.08;;;23.01;32.95
48718;BME280;34521;33.042;-96.586;2023-05-07T06:29:56;99705.91;;;22.72;33.09
48718;BME280;34521;33.042;-96.586;2023-05-07T06:32:22;99694.83;;;22.10;33.67
48718;BME280;34521;33.042;-96.586;2023-05-07T06:34:47;99703.73;;;22.61;33.19
48718;BME280;34521;33.042;-96.586;2023-05-07T06:37:11;99694.21;;;22.86;33.01
48718;BME280;34521;33.042;-96.586;2023-05-07T06:39:37;99626.42;;;22.58;33.45
48718;BME280;34521;33.042;-96.586;2023-05-07T06:42:02;99564.18;;;22.49;33.65
48718;BME280;34521;33.042;-96.586;2023-05-07T06:44:27;99611.04;;;22.98;33.46
48718;BME280;34521;33.042;-96.586;2023-05-07T06:46:52;99635.76;;;23.00;33.27
48718;BME280;34521;33.042;-96.586;2023-05-07T06:49:17;99607.71;;;23.14;33.10
48718;BME280;34521;33.042;-96.586;2023-05-07T06:51:42;99576.03;;;22.98;33.37
48718;BME280;34521;33.042;-96.586;2023-05-07T06:54:07;99588.72;;;22.31;33.92
48718;BME280;34521;33.042;-96.586;2023-05-07T06:56:32;99565.12;;;21.64;33.70
48718;BME280;34521;33.042;-96.586;2023-05-07T06:58:57;99535.98;;;21.79;34.12
48718;BME280;34521;33.042;-96.586;2023-05-07T07:01:22;99522.13;;;22.33;35.44
48718;BME280;34521;33.042;-96.586;2023-05-07T07:03:47;99518.25;;;22.92;34.15
48718;BME280;34521;33.042;-96.586;2023-05-07T07:06:12;99504.66;;;22.48;34.38
48718;BME280;34521;33.042;-96.586;2023-05-07T07:08:37;99500.16;;;22.17;34.78
48718;BME280;34521;33.042;-96.586;2023-05-07T07:11:02;99497.95;;;22.25;34.40
48718;BME280;34521;33.042;-96.586;2023-05-07T07:13:27;99492.43;;;22.34;34.36
48718;BME280;34521;33.042;-96.586;2023-05-07T07:15:53;99478.31;;;22.37;34.41
48718;BME280;34521;33.042;-96.586;2023-05-07T07:18:17;99484.17;;;22.41;34.41
48718;BME280;34521;33.042;-96.586;2023-05-07T07:20:42;99473.32;;;22.58;34.28
48718;BME280;34521;33.042;-96.586;2023-05-07T07:23:07;99483.63;;;22.59;34.27
48718;BME280;34521;33.042;-96.586;2023-05-07T07:25:32;99481.42;;;23.13;33.86
48718;BME280;34521;33.042;-96.586;2023-05-07T07:27:57;99491.84;;;22.78;34.04
48718;BME280;34521;33.042;-96.586;2023-05-07T07:30:23;99464.89;;;22.78;34.08
48718;BME280;34521;33.042;-96.586;2023-05-07T07:32:48;99458.82;;;23.28;33.74
48718;BME280;34521;33.042;-96.586;2023-05-07T07:35:13;99424.12;;;21.82;34.76
48718;BME280;34521;33.042;-96.586;2023-05-07T07:37:38;99426.05;;;21.95;33.37
48718;BME280;34521;33.042;-96.586;2023-05-07T07:40:03;99429.98;;;21.68;34.31
48718;BME280;34521;33.042;-96.586;2023-05-07T07:42:28;99431.13;;;22.16;33.84
48718;BME280;34521;33.042;-96.586;2023-05-07T07:44:53;99447.07;;;22.55;33.53
48718;BME280;34521;33.042;-96.586;2023-05-07T07:47:18;99450.82;;;22.35;33.85
48718;BME280;34521;33.042;-96.586;2023-05-07T07:49:43;99464.17;;;22.64;33.64
48718;BME280;34521;33.042;-96.586;2023-05-07T07:52:08;99467.56;;;22.55;33.54
48718;BME280;34521;33.042;-96.586;2023-05-07T07:54:33;99467.73;;;21.86;35.93
48718;BME280;34521;33.042;-96.586;2023-05-07T07:56:58;99478.75;;;21.85;37.05
48718;BME280;34521;33.042;-96.586;2023-05-07T07:59:24;99486.35;;;22.19;37.69
48718;BME280;34521;33.042;-96.586;2023-05-07T08:01:48;99490.03;;;22.50;36.80
48718;BME280;34521;33.042;-96.586;2023-05-07T08:04:13;99503.05;;;22.37;37.05
48718;BME280;34521;33.042;-96.586;2023-05-07T08:06:38;99498.98;;;22.41;36.62
48718;BME280;34521;33.042;-96.586;2023-05-07T08:09:05;99501.07;;;22.01;36.64
48718;BME280;34521;33.042;-96.586;2023-05-07T08:11:28;99514.38;;;22.26;36.17
48718;BME280;34521;33.042;-96.586;2023-05-07T08:13:54;99515.67;;;22.55;35.73
48718;BME280;34521;33.042;-96.586;2023-05-07T08:16:18;99531.03;;;22.71;35.41
48718;BME280;34521;33.042;-96.586;2023-05-07T08:18:43;99528.89;;;23.46;34.95
48718;BME280;34521;33.042;-96.586;2023-05-07T08:21:09;99537.38;;;22.59;35.52
48718;BME280;34521;33.042;-96.586;2023-05-07T08:23:34;99532.83;;;22.67;35.36
48718;BME280;34521;33.042;-96.586;2023-05-07T08:25:59;99537.62;;;22.64;35.33
48718;BME280;34521;33.042;-96.586;2023-05-07T08:28:24;99543.06;;;22.78;35.06
48718;BME280;34521;33.042;-96.586;2023-05-07T08:30:49;99549.72;;;21.40;36.42
48718;BME280;34521;33.042;-96.586;2023-05-07T08:33:14;99542.87;;;21.64;35.42
48718;BME280;34521;33.042;-96.586;2023-05-07T08:35:39;99538.30;;;21.62;35.48
48718;BME280;34521;33.042;-96.586;2023-05-07T08:38:04;99528.86;;;22.07;34.61
48718;BME280;34521;33.042;-96.586;2023-05-07T08:40:29;99521.23;;;22.08;34.44
48718;BME280;34521;33.042;-96.586;2023-05-07T08:42:54;99520.86;;;22.05;34.29
48718;BME280;34521;33.042;-96.586;2023-05-07T08:45:20;99519.08;;;22.28;34.70
48718;BME280;34521;33.042;-96.586;2023-05-07T08:47:46;99503.01;;;22.18;34.63
48718;BME280;34521;33.042;-96.586;2023-05-07T08:50:10;99461.02;;;22.49;34.29
48718;BME280;34521;33.042;-96.586;2023-05-07T08:52:34;99392.48;;;22.52;34.99
48718;BME280;34521;33.042;-96.586;2023-05-07T08:55:00;99365.19;;;22.09;37.67
48718;BME280;34521;33.042;-96.586;2023-05-07T08:57:24;99361.83;;;21.31;39.28
48718;BME280;34521;33.042;-96.586;2023-05-07T08:59:49;99358.40;;;22.10;38.63
48718;BME280;34521;33.042;-96.586;2023-05-07T09:02:14;99371.68;;;22.11;38.02
48718;BME280;34521;33.042;-96.586;2023-05-07T09:04:39;99363.82;;;22.57;37.15
48718;BME280;34521;33.042;-96.586;2023-05-07T09:07:04;99360.01;;;22.50;37.17
48718;BME280;34521;33.042;-96.586;2023-05-07T09:09:29;99368.04;;;21.95;37.19
48718;BME280;34521;33.042;-96.586;2023-05-07T09:11:58;99385.80;;;22.28;36.73
48718;BME280;34521;33.042;-96.586;2023-05-07T09:14:22;99388.31;;;22.76;35.95
48718;BME280;34521;33.042;-96.586;2023-05-07T09:16:45;99394.98;;;22.92;36.27
48718;BME280;34521;33.042;-96.586;2023-05-07T09:19:09;99391.47;;;22.51;36.01
48718;BME280;34521;33.042;-96.586;2023-05-07T09:21:35;99395.55;;;22.82;35.57
48718;BME280;34521;33.042;-96.586;2023-05-07T09:24:00;99393.97;;;23.00;35.57
48718;BME280;34521;33.042;-96.586;2023-05-07T09:26:25;99398.40;;;22.57;35.84
48718;BME280;34521;33.042;-96.586;2023-05-07T09:28:50;99399.55;;;22.57;35.72
48718;BME280;34521;33.042;-96.586;2023-05-07T09:31:15;99395.48;;;21.63;36.90
48718;BME280;34521;33.042;-96.586;2023-05-07T09:33:40;99398.25;;;21.43;35.28
48718;BME280;34521;33.042;-96.586;2023-05-07T09:36:06;99404.93;;;21.55;35.87
48718;BME280;34521;33.042;-96.586;2023-05-07T09:38:30;99410.62;;;21.74;35.33
48718;BME280;34521;33.042;-96.586;2023-05-07T09:41:01;99416.67;;;22.27;35.15
48718;BME280;34521;33.042;-96.586;2023-05-07T09:43:20;99416.81;;;21.98;35.18
48718;BME280;34521;33.042;-96.586;2023-05-07T09:45:46;99421.21;;;22.24;34.95
48718;BME280;34521;33.042;-96.586;2023-05-07T09:48:11;99421.75;;;22.76;34.69
48718;BME280;34521;33.042;-96.586;2023-05-07T09:50:40;99427.70;;;22.50;34.76
48718;BME280;34521;33.042;-96.586;2023-05-07T09:53:00;99437.49;;;22.14;37.46
48718;BME280;34521;33.042;-96.586;2023-05-07T09:55:26;99452.32;;;20.80;40.63
48718;BME280;34521;33.042;-96.586;2023-05-07T09:57:51;99453.05;;;20.78;41.26
48718;BME280;34521;33.042;-96.586;2023-05-07T10:00:15;99447.06;;;21.78;38.98
48718;BME280;34521;33.042;-96.586;2023-05-07T10:02:41;99443.88;;;22.45;38.15
48718;BME280;34521;33.042;-96.586;2023-05-07T10:05:06;99441.47;;;22.12;38.08
48718;BME280;34521;33.042;-96.586;2023-05-07T10:07:30;99441.92;;;22.43;37.51
48718;BME280;34521;33.042;-96.586;2023-05-07T10:09:56;99444.29;;;22.47;37.06
48718;BME280;34521;33.042;-96.586;2023-05-07T10:12:20;99452.66;;;22.95;36.66
48718;BME280;34521;33.042;-96.586;2023-05-07T10:14:46;99455.40;;;22.47;36.53
48718;BME280;34521;33.042;-96.586;2023-05-07T10:17:12;99451.49;;;22.89;35.83
48718;BME280;34521;33.042;-96.586;2023-05-07T10:19:36;99452.69;;;22.93;36.07
48718;BME280;34521;33.042;-96.586;2023-05-07T10:22:05;99453.38;;;22.84;35.72
48718;BME280;34521;33.042;-96.586;2023-05-07T10:24:29;99454.85;;;22.58;35.65
48718;BME280;34521;33.042;-96.586;2023-05-07T10:26:52;99456.70;;;22.65;35.92
48718;BME280;34521;33.042;-96.586;2023-05-07T10:29:33;99460.42;;;22.76;35.78
48718;BME280;34521;33.042;-96.586;2023-05-07T10:31:52;99461.51;;;21.04;37.52
48718;BME280;34521;33.042;-96.586;2023-05-07T10:34:09;99458.84;;;21.36;36.37
48718;BME280;34521;33.042;-96.586;2023-05-07T10:36:36;99464.75;;;21.22;36.79
48718;BME280;34521;33.042;-96.586;2023-05-07T10:38:57;99459.47;;;22.42;35.26
48718;BME280;34521;33.042;-96.586;2023-05-07T10:41:26;99459.79;;;22.29;35.30
48718;BME280;34521;33.042;-96.586;2023-05-07T10:43:46;99461.89;;;22.16;35.18
48718;BME280;34521;33.042;-96.586;2023-05-07T10:46:13;99466.92;;;22.69;34.82
48718;BME280;34521;33.042;-96.586;2023-05-07T10:51:18;99477.64;;;21.25;38.12
48718;BME280;34521;33.042;-96.586;2023-05-07T10:53:26;99478.56;;;21.36;39.72
48718;BME280;34521;33.042;-96.586;2023-05-07T10:56:23;99481.47;;;20.66;41.84
48718;BME280;34521;33.042;-96.586;2023-05-07T10:58:24;99477.45;;;21.63;39.59
48718;BME280;34521;33.042;-96.586;2023-05-07T11:00:42;99479.74;;;21.90;39.16
48718;BME280;34521;33.042;-96.586;2023-05-07T11:03:06;99484.61;;;22.00;38.54
48718;BME280;34521;33.042;-96.586;2023-05-07T11:05:32;99491.26;;;22.80;37.33
48718;BME280;34521;33.042;-96.586;2023-05-07T11:08:02;99497.74;;;22.59;37.12
48718;BME280;34521;33.042;-96.586;2023-05-07T11:10:21;99505.76;;;22.68;36.56
48718;BME280;34521;33.042;-96.586;2023-05-07T11:12:52;99505.64;;;22.66;36.44
48718;BME280;34521;33.042;-96.586;2023-05-07T11:15:12;99509.18;;;23.13;36.35
48718;BME280;34521;33.042;-96.586;2023-05-07T11:20:02;99516.74;;;22.46;36.46
48718;BME280;34521;33.042;-96.586;2023-05-07T11:22:37;99523.40;;;22.43;36.60
48718;BME280;34521;33.042;-96.586;2023-05-07T11:24:51;99530.05;;;22.19;36.91
48718;BME280;34521;33.042;-96.586;2023-05-07T11:27:23;99526.74;;;22.54;36.70
48718;BME280;34521;33.042;-96.586;2023-05-07T11:29:47;99528.35;;;22.19;36.79
48718;BME280;34521;33.042;-96.586;2023-05-07T11:32:07;99530.14;;;22.27;36.80
48718;BME280;34521;33.042;-96.586;2023-05-07T11:34:32;99538.54;;;20.68;38.00
48718;BME280;34521;33.042;-96.586;2023-05-07T11:36:58;99545.17;;;21.66;36.60
48718;BME280;34521;33.042;-96.586;2023-05-07T11:39:27;99540.49;;;21.52;36.45
48718;BME280;34521;33.042;-96.586;2023-05-07T11:41:47;99535.61;;;22.18;36.04
48718;BME280;34521;33.042;-96.586;2023-05-07T11:44:12;99539.57;;;22.18;35.52
48718;BME280;34521;33.042;-96.586;2023-05-07T11:46:37;99541.30;;;22.08;35.32
48718;BME280;34521;33.042;-96.586;2023-05-07T11:49:02;99542.08;;;22.27;36.55
48718;BME280;34521;33.042;-96.586;2023-05-07T11:51:27;99545.83;;;20.53;40.94
48718;BME280;34521;33.042;-96.586;2023-05-07T11:53:53;99545.91;;;20.15;42.30
48718;BME280;34521;33.042;-96.586;2023-05-07T11:56:18;99549.85;;;20.46;42.52
48718;BME280;34521;33.042;-96.586;2023-05-07T11:58:43;99548.36;;;22.16;39.24
48718;BME280;34521;33.042;-96.586;2023-05-07T12:01:09;99551.74;;;22.17;38.63
48718;BME280;34521;33.042;-96.586;2023-05-07T12:03:32;99550.32;;;22.28;38.06
48718;BME280;34521;33.042;-96.586;2023-05-07T12:05:57;99555.16;;;22.37;37.88
48718;BME280;34521;33.042;-96.586;2023-05-07T12:08:22;99557.62;;;22.39;37.31
48718;BME280;34521;33.042;-96.586;2023-05-07T12:10:49;99559.35;;;22.76;36.98
48718;BME280;34521;33.042;-96.586;2023-05-07T12:13:16;99561.95;;;22.73;36.84
48718;BME280;34521;33.042;-96.586;2023-05-07T12:15:37;99561.32;;;22.85;36.22
48718;BME280;34521;33.042;-96.586;2023-05-07T12:18:02;99561.18;;;22.44;36.68
48718;BME280;34521;33.042;-96.586;2023-05-07T12:20:27;99563.39;;;22.25;36.92
48718;BME280;34521;33.042;-96.586;2023-05-07T12:22:57;99562.17;;;22.43;36.90
48718;BME280;34521;33.042;-96.586;2023-05-07T12:25:20;99566.51;;;22.39;36.64
48718;BME280;34521;33.042;-96.586;2023-05-07T12:27:42;99566.00;;;22.46;36.44
48718;BME280;34521;33.042;-96.586;2023-05-07T12:30:10;99565.06;;;22.60;36.29